Alta, California
Current Conditions -  °F | °C
As of 2:35 PM on Friday 31 Oct 2014 (Local Time) from KBLU Reporting Station
Light Rain Light Rain  
Wind Chill: 41°   Ceiling: 200
Heat Index: 45°   Visibility: 0.5mi
Dew Point: 43°   Wind: 8mph
Humidity: 93%   Direction: 160°SSE
Pressure: 29.87"   Gusts: NA
Location:  39.21°N, 120.81°W
Report Text: KBLU 312135Z AUTO 16007KT 1/2SM -RA FG VV002 07/06 A2987 RMK AO2 VIS 1/4V1 1/4 P0004 T00720061
Loading
Personal Weather Stations






























Interactive Weather Map
Tropical Storm Tracking
New forecast layout! Learn more

10-Day Weather Forecast

Advertisements
Track Severe Weather on mobile